sensor_id;sensor_type;location;lat;lon;timestamp;temperature;humidity
10891;DHT22;5498;50.928;11.598;2022-12-10T00:01:47;1.80;97.20
10891;DHT22;5498;50.928;11.598;2022-12-10T00:04:52;1.70;97.10
10891;DHT22;5498;50.928;11.598;2022-12-10T00:07:55;1.70;97.20
10891;DHT22;5498;50.928;11.598;2022-12-10T00:10:58;1.70;97.10
10891;DHT22;5498;50.928;11.598;2022-12-10T00:14:00;1.70;97.20
10891;DHT22;5498;50.928;11.598;2022-12-10T00:17:04;1.80;97.10
10891;DHT22;5498;50.928;11.598;2022-12-10T00:20:07;1.60;97.10
10891;DHT22;5498;50.928;11.598;2022-12-10T00:23:10;1.70;97.20
10891;DHT22;5498;50.928;11.598;2022-12-10T00:26:13;1.70;97.20
10891;DHT22;5498;50.928;11.598;2022-12-10T00:29:16;1.50;97.30
10891;DHT22;5498;50.928;11.598;2022-12-10T00:32:19;1.50;97.30
10891;DHT22;5498;50.928;11.598;2022-12-10T00:35:21;1.50;97.40
10891;DHT22;5498;50.928;11.598;2022-12-10T00:38:23;1.60;97.40
10891;DHT22;5498;50.928;11.598;2022-12-10T00:41:26;1.50;97.20
10891;DHT22;5498;50.928;11.598;2022-12-10T00:44:28;1.60;97.20
10891;DHT22;5498;50.928;11.598;2022-12-10T00:47:31;1.60;97.20
10891;DHT22;5498;50.928;11.598;2022-12-10T00:50:33;1.60;97.20
10891;DHT22;5498;50.928;11.598;2022-12-10T00:53:37;1.40;97.10
10891;DHT22;5498;50.928;11.598;2022-12-10T00:56:40;1.50;97.50
10891;DHT22;5498;50.928;11.598;2022-12-10T00:59:42;1.50;97.40
10891;DHT22;5498;50.928;11.598;2022-12-10T01:02:45;1.60;97.40
10891;DHT22;5498;50.928;11.598;2022-12-10T01:05:47;1.50;97.30
10891;DHT22;5498;50.928;11.598;2022-12-10T01:08:52;1.40;97.40
10891;DHT22;5498;50.928;11.598;2022-12-10T01:11:57;1.30;97.50
10891;DHT22;5498;50.928;11.598;2022-12-10T01:15:02;1.30;97.90
10891;DHT22;5498;50.928;11.598;2022-12-10T01:18:06;1.20;97.80
10891;DHT22;5498;50.928;11.598;2022-12-10T01:21:10;1.20;97.80
10891;DHT22;5498;50.928;11.598;2022-12-10T01:24:14;1.10;98.00
10891;DHT22;5498;50.928;11.598;2022-12-10T01:27:16;1.10;98.00
10891;DHT22;5498;50.928;11.598;2022-12-10T01:30:18;1.00;98.10
10891;DHT22;5498;50.928;11.598;2022-12-10T01:33:22;1.10;98.20
10891;DHT22;5498;50.928;11.598;2022-12-10T01:36:26;1.20;98.30
10891;DHT22;5498;50.928;11.598;2022-12-10T01:39:29;0.90;98.40
10891;DHT22;5498;50.928;11.598;2022-12-10T01:42:32;0.90;98.60
10891;DHT22;5498;50.928;11.598;2022-12-10T01:45:34;0.90;98.60
10891;DHT22;5498;50.928;11.598;2022-12-10T01:48:37;0.90;98.40
10891;DHT22;5498;50.928;11.598;2022-12-10T01:51:43;0.90;98.60
10891;DHT22;5498;50.928;11.598;2022-12-10T01:54:46;1.00;98.40
10891;DHT22;5498;50.928;11.598;2022-12-10T01:57:48;0.80;98.40
10891;DHT22;5498;50.928;11.598;2022-12-10T02:01:05;0.80;98.60
10891;DHT22;5498;50.928;11.598;2022-12-10T02:04:17;1.00;98.80
10891;DHT22;5498;50.928;11.598;2022-12-10T02:07:32;1.00;98.40
10891;DHT22;5498;50.928;11.598;2022-12-10T02:10:46;1.20;98.50
10891;DHT22;5498;50.928;11.598;2022-12-10T02:14:02;1.20;98.30
10891;DHT22;5498;50.928;11.598;2022-12-10T02:17:12;1.30;98.00
10891;DHT22;5498;50.928;11.598;2022-12-10T02:20:20;1.20;97.90
10891;DHT22;5498;50.928;11.598;2022-12-10T02:23:28;1.30;98.00
10891;DHT22;5498;50.928;11.598;2022-12-10T02:26:37;1.30;97.90
10891;DHT22;5498;50.928;11.598;2022-12-10T02:29:47;1.30;97.80
10891;DHT22;5498;50.928;11.598;2022-12-10T02:32:50;1.10;97.70
10891;DHT22;5498;50.928;11.598;2022-12-10T02:35:53;1.10;97.80
10891;DHT22;5498;50.928;11.598;2022-12-10T02:39:01;1.10;98.00
10891;DHT22;5498;50.928;11.598;2022-12-10T02:42:06;1.10;97.90
10891;DHT22;5498;50.928;11.598;2022-12-10T02:45:11;1.10;97.90
10891;DHT22;5498;50.928;11.598;2022-12-10T02:48:13;1.20;98.00
10891;DHT22;5498;50.928;11.598;2022-12-10T02:51:16;1.20;97.90
10891;DHT22;5498;50.928;11.598;2022-12-10T02:54:39;1.20;97.90
10891;DHT22;5498;50.928;11.598;2022-12-10T02:57:50;1.10;97.90
10891;DHT22;5498;50.928;11.598;2022-12-10T03:01:08;1.00;98.00
10891;DHT22;5498;50.928;11.598;2022-12-10T03:04:22;0.90;98.20
10891;DHT22;5498;50.928;11.598;2022-12-10T03:07:33;0.80;98.30
10891;DHT22;5498;50.928;11.598;2022-12-10T03:10:42;0.90;98.50
10891;DHT22;5498;50.928;11.598;2022-12-10T03:13:53;1.00;98.30
10891;DHT22;5498;50.928;11.598;2022-12-10T03:16:59;0.90;98.30
10891;DHT22;5498;50.928;11.598;2022-12-10T03:20:03;0.70;98.30
10891;DHT22;5498;50.928;11.598;2022-12-10T03:23:10;0.70;98.60
10891;DHT22;5498;50.928;11.598;2022-12-10T03:26:18;0.70;98.70
10891;DHT22;5498;50.928;11.598;2022-12-10T03:29:23;0.70;98.70
10891;DHT22;5498;50.928;11.598;2022-12-10T03:32:33;0.70;98.70
10891;DHT22;5498;50.928;11.598;2022-12-10T03:35:38;0.80;98.70
10891;DHT22;5498;50.928;11.598;2022-12-10T03:38:41;1.10;98.60
10891;DHT22;5498;50.928;11.598;2022-12-10T03:41:43;0.90;98.70
10891;DHT22;5498;50.928;11.598;2022-12-10T03:44:48;1.00;98.50
10891;DHT22;5498;50.928;11.598;2022-12-10T03:47:53;1.00;98.50
10891;DHT22;5498;50.928;11.598;2022-12-10T03:50:55;1.00;98.30
10891;DHT22;5498;50.928;11.598;2022-12-10T03:53:57;1.00;98.40
10891;DHT22;5498;50.928;11.598;2022-12-10T03:56:59;1.10;98.30
10891;DHT22;5498;50.928;11.598;2022-12-10T04:00:01;1.10;98.30
10891;DHT22;5498;50.928;11.598;2022-12-10T04:03:06;1.20;98.10
10891;DHT22;5498;50.928;11.598;2022-12-10T04:06:10;1.20;98.20
10891;DHT22;5498;50.928;11.598;2022-12-10T04:09:15;1.30;98.00
10891;DHT22;5498;50.928;11.598;2022-12-10T04:12:17;1.20;97.80
10891;DHT22;5498;50.928;11.598;2022-12-10T04:15:19;1.20;97.80
10891;DHT22;5498;50.928;11.598;2022-12-10T04:18:52;1.80;97.80
10891;DHT22;5498;50.928;11.598;2022-12-10T04:21:54;1.10;97.60
10891;DHT22;5498;50.928;11.598;2022-12-10T04:25:13;1.10;97.70
10891;DHT22;5498;50.928;11.598;2022-12-10T04:28:33;1.00;97.60
10891;DHT22;5498;50.928;11.598;2022-12-10T04:31:35;0.90;97.80
10891;DHT22;5498;50.928;11.598;2022-12-10T04:34:38;1.00;98.00
10891;DHT22;5498;50.928;11.598;2022-12-10T04:37:40;0.80;98.00
10891;DHT22;5498;50.928;11.598;2022-12-10T04:40:42;0.80;97.80
10891;DHT22;5498;50.928;11.598;2022-12-10T04:43:44;0.70;98.00
10891;DHT22;5498;50.928;11.598;2022-12-10T04:46:47;0.80;98.00
10891;DHT22;5498;50.928;11.598;2022-12-10T04:49:51;0.90;98.10
10891;DHT22;5498;50.928;11.598;2022-12-10T04:52:53;0.90;98.00
10891;DHT22;5498;50.928;11.598;2022-12-10T04:55:55;1.00;97.90
10891;DHT22;5498;50.928;11.598;2022-12-10T04:59:02;0.90;97.60
10891;DHT22;5498;50.928;11.598;2022-12-10T05:02:05;0.90;97.80
10891;DHT22;5498;50.928;11.598;2022-12-10T05:05:09;0.90;97.80
10891;DHT22;5498;50.928;11.598;2022-12-10T05:08:11;0.90;97.90
10891;DHT22;5498;50.928;11.598;2022-12-10T05:11:14;0.80;97.90
10891;DHT22;5498;50.928;11.598;2022-12-10T05:14:17;0.90;98.30
10891;DHT22;5498;50.928;11.598;2022-12-10T05:17:19;1.00;97.80
10891;DHT22;5498;50.928;11.598;2022-12-10T05:20:22;0.90;97.70
10891;DHT22;5498;50.928;11.598;2022-12-10T05:23:24;0.80;97.70
10891;DHT22;5498;50.928;11.598;2022-12-10T05:26:28;1.00;97.70
10891;DHT22;5498;50.928;11.598;2022-12-10T05:29:32;1.00;97.50
10891;DHT22;5498;50.928;11.598;2022-12-10T05:32:34;0.90;97.60
10891;DHT22;5498;50.928;11.598;2022-12-10T05:35:38;0.80;97.60
10891;DHT22;5498;50.928;11.598;2022-12-10T05:38:40;0.70;97.70
10891;DHT22;5498;50.928;11.598;2022-12-10T05:41:43;0.80;98.00
10891;DHT22;5498;50.928;11.598;2022-12-10T05:44:46;0.90;97.80
10891;DHT22;5498;50.928;11.598;2022-12-10T05:47:48;0.80;97.80
10891;DHT22;5498;50.928;11.598;2022-12-10T05:50:52;0.80;97.60
10891;DHT22;5498;50.928;11.598;2022-12-10T05:53:55;0.80;97.50
10891;DHT22;5498;50.928;11.598;2022-12-10T05:56:58;0.80;97.60
10891;DHT22;5498;50.928;11.598;2022-12-10T06:00:00;0.70;97.50
10891;DHT22;5498;50.928;11.598;2022-12-10T06:03:02;0.80;97.60
10891;DHT22;5498;50.928;11.598;2022-12-10T06:06:06;0.80;97.70
10891;DHT22;5498;50.928;11.598;2022-12-10T06:09:12;0.90;97.70
10891;DHT22;5498;50.928;11.598;2022-12-10T06:12:14;0.90;97.50
10891;DHT22;5498;50.928;11.598;2022-12-10T06:15:16;0.80;97.40
10891;DHT22;5498;50.928;11.598;2022-12-10T06:18:18;0.80;97.40
10891;DHT22;5498;50.928;11.598;2022-12-10T06:21:22;0.90;97.50
10891;DHT22;5498;50.928;11.598;2022-12-10T06:24:25;0.90;97.40
10891;DHT22;5498;50.928;11.598;2022-12-10T06:27:29;0.80;97.10
10891;DHT22;5498;50.928;11.598;2022-12-10T06:30:32;1.00;97.40
10891;DHT22;5498;50.928;11.598;2022-12-10T06:33:34;0.80;97.10
10891;DHT22;5498;50.928;11.598;2022-12-10T06:36:38;1.00;97.20
10891;DHT22;5498;50.928;11.598;2022-12-10T06:39:40;0.80;97.00
10891;DHT22;5498;50.928;11.598;2022-12-10T06:42:42;0.80;97.10
10891;DHT22;5498;50.928;11.598;2022-12-10T06:45:44;0.80;97.10
10891;DHT22;5498;50.928;11.598;2022-12-10T06:48:46;0.50;97.30
10891;DHT22;5498;50.928;11.598;2022-12-10T06:51:50;0.60;97.80
10891;DHT22;5498;50.928;11.598;2022-12-10T06:54:52;0.80;97.60
10891;DHT22;5498;50.928;11.598;2022-12-10T06:57:55;0.90;97.40
10891;DHT22;5498;50.928;11.598;2022-12-10T07:01:04;1.00;96.80
10891;DHT22;5498;50.928;11.598;2022-12-10T07:04:08;0.90;97.10
10891;DHT22;5498;50.928;11.598;2022-12-10T07:07:11;0.90;97.00
10891;DHT22;5498;50.928;11.598;2022-12-10T07:10:13;0.90;97.00
10891;DHT22;5498;50.928;11.598;2022-12-10T07:13:15;1.00;97.00
10891;DHT22;5498;50.928;11.598;2022-12-10T07:16:19;0.90;96.80
10891;DHT22;5498;50.928;11.598;2022-12-10T07:19:22;0.80;97.00
10891;DHT22;5498;50.928;11.598;2022-12-10T07:22:26;0.60;97.20
10891;DHT22;5498;50.928;11.598;2022-12-10T07:25:28;0.50;97.30
10891;DHT22;5498;50.928;11.598;2022-12-10T07:28:30;0.60;97.60
10891;DHT22;5498;50.928;11.598;2022-12-10T07:31:32;0.40;97.40
10891;DHT22;5498;50.928;11.598;2022-12-10T07:34:35;0.40;97.60
10891;DHT22;5498;50.928;11.598;2022-12-10T07:37:38;0.40;97.50
10891;DHT22;5498;50.928;11.598;2022-12-10T07:40:40;0.30;97.70
10891;DHT22;5498;50.928;11.598;2022-12-10T07:43:43;0.60;97.80
10891;DHT22;5498;50.928;11.598;2022-12-10T07:46:46;0.60;97.60
10891;DHT22;5498;50.928;11.598;2022-12-10T07:49:48;0.40;97.30
10891;DHT22;5498;50.928;11.598;2022-12-10T07:52:52;0.40;97.30
10891;DHT22;5498;50.928;11.598;2022-12-10T07:55:54;0.60;97.20
10891;DHT22;5498;50.928;11.598;2022-12-10T07:58:58;0.70;96.90
10891;DHT22;5498;50.928;11.598;2022-12-10T08:02:00;0.50;97.10
10891;DHT22;5498;50.928;11.598;2022-12-10T08:05:03;0.60;97.00
10891;DHT22;5498;50.928;11.598;2022-12-10T08:08:06;0.40;97.00
10891;DHT22;5498;50.928;11.598;2022-12-10T08:11:09;0.40;97.20
10891;DHT22;5498;50.928;11.598;2022-12-10T08:14:11;0.30;97.20
10891;DHT22;5498;50.928;11.598;2022-12-10T08:17:13;0.40;97.10
10891;DHT22;5498;50.928;11.598;2022-12-10T08:20:15;0.30;96.80
10891;DHT22;5498;50.928;11.598;2022-12-10T08:23:19;0.50;96.90
10891;DHT22;5498;50.928;11.598;2022-12-10T08:26:23;0.40;96.80
10891;DHT22;5498;50.928;11.598;2022-12-10T08:29:26;0.40;96.90
10891;DHT22;5498;50.928;11.598;2022-12-10T08:32:28;0.60;96.80
10891;DHT22;5498;50.928;11.598;2022-12-10T08:35:30;0.70;96.50
10891;DHT22;5498;50.928;11.598;2022-12-10T08:38:34;0.70;96.30
10891;DHT22;5498;50.928;11.598;2022-12-10T08:41:36;0.60;96.30
10891;DHT22;5498;50.928;11.598;2022-12-10T08:44:39;0.80;96.20
10891;DHT22;5498;50.928;11.598;2022-12-10T08:47:41;0.90;96.00
10891;DHT22;5498;50.928;11.598;2022-12-10T08:50:43;0.60;96.10
10891;DHT22;5498;50.928;11.598;2022-12-10T08:53:46;0.60;96.20
10891;DHT22;5498;50.928;11.598;2022-12-10T08:56:49;0.70;96.00
10891;DHT22;5498;50.928;11.598;2022-12-10T08:59:51;0.50;95.80
10891;DHT22;5498;50.928;11.598;2022-12-10T09:02:54;0.50;95.90
10891;DHT22;5498;50.928;11.598;2022-12-10T09:05:56;0.50;96.10
10891;DHT22;5498;50.928;11.598;2022-12-10T09:08:59;0.30;96.00
10891;DHT22;5498;50.928;11.598;2022-12-10T09:12:02;0.50;96.30
10891;DHT22;5498;50.928;11.598;2022-12-10T09:15:05;0.60;96.30
10891;DHT22;5498;50.928;11.598;2022-12-10T09:18:08;0.60;96.20
10891;DHT22;5498;50.928;11.598;2022-12-10T09:21:12;0.70;96.00
10891;DHT22;5498;50.928;11.598;2022-12-10T09:24:17;0.50;96.10
10891;DHT22;5498;50.928;11.598;2022-12-10T09:27:19;0.50;96.50
10891;DHT22;5498;50.928;11.598;2022-12-10T09:30:21;0.40;96.40
10891;DHT22;5498;50.928;11.598;2022-12-10T09:33:23;0.30;96.20
10891;DHT22;5498;50.928;11.598;2022-12-10T09:36:25;0.40;96.30
10891;DHT22;5498;50.928;11.598;2022-12-10T09:39:28;0.60;96.10
10891;DHT22;5498;50.928;11.598;2022-12-10T09:42:37;0.80;95.80
10891;DHT22;5498;50.928;11.598;2022-12-10T09:45:55;0.80;95.60
10891;DHT22;5498;50.928;11.598;2022-12-10T09:49:11;0.80;95.50
10891;DHT22;5498;50.928;11.598;2022-12-10T09:52:22;0.90;95.30
10891;DHT22;5498;50.928;11.598;2022-12-10T09:55:32;0.80;95.20
10891;DHT22;5498;50.928;11.598;2022-12-10T09:58:36;0.90;95.20
10891;DHT22;5498;50.928;11.598;2022-12-10T10:01:39;0.90;95.10
10891;DHT22;5498;50.928;11.598;2022-12-10T10:04:41;1.00;95.00
10891;DHT22;5498;50.928;11.598;2022-12-10T10:07:45;0.90;95.10
10891;DHT22;5498;50.928;11.598;2022-12-10T10:10:51;1.00;95.10
10891;DHT22;5498;50.928;11.598;2022-12-10T10:13:56;0.90;94.80
10891;DHT22;5498;50.928;11.598;2022-12-10T10:17:03;0.90;95.10
10891;DHT22;5498;50.928;11.598;2022-12-10T10:20:09;0.90;95.00
10891;DHT22;5498;50.928;11.598;2022-12-10T10:23:15;0.50;94.80
10891;DHT22;5498;50.928;11.598;2022-12-10T10:26:21;0.30;95.40
10891;DHT22;5498;50.928;11.598;2022-12-10T10:29:25;0.50;95.60
10891;DHT22;5498;50.928;11.598;2022-12-10T10:32:44;0.40;95.40
10891;DHT22;5498;50.928;11.598;2022-12-10T10:35:53;0.80;95.40
10891;DHT22;5498;50.928;11.598;2022-12-10T10:39:08;0.70;95.30
10891;DHT22;5498;50.928;11.598;2022-12-10T10:42:27;0.80;95.50
10891;DHT22;5498;50.928;11.598;2022-12-10T10:45:39;0.90;94.90
10891;DHT22;5498;50.928;11.598;2022-12-10T10:48:42;1.00;94.70
10891;DHT22;5498;50.928;11.598;2022-12-10T10:51:45;1.10;94.50
10891;DHT22;5498;50.928;11.598;2022-12-10T10:54:48;1.20;94.20
10891;DHT22;5498;50.928;11.598;2022-12-10T10:57:53;1.20;94.00
10891;DHT22;5498;50.928;11.598;2022-12-10T11:01:00;1.20;93.90
10891;DHT22;5498;50.928;11.598;2022-12-10T11:04:04;1.20;94.00
10891;DHT22;5498;50.928;11.598;2022-12-10T11:07:24;1.20;93.70
10891;DHT22;5498;50.928;11.598;2022-12-10T11:10:34;1.20;93.90
10891;DHT22;5498;50.928;11.598;2022-12-10T11:13:39;1.20;93.70
10891;DHT22;5498;50.928;11.598;2022-12-10T11:16:41;1.30;93.50
10891;DHT22;5498;50.928;11.598;2022-12-10T11:19:53;1.40;93.60
10891;DHT22;5498;50.928;11.598;2022-12-10T11:22:58;1.50;93.50
10891;DHT22;5498;50.928;11.598;2022-12-10T11:29:46;1.70;93.30
10891;DHT22;5498;50.928;11.598;2022-12-10T11:33:11;1.70;93.20
10891;DHT22;5498;50.928;11.598;2022-12-10T11:36:27;1.70;92.80
10891;DHT22;5498;50.928;11.598;2022-12-10T11:39:53;1.40;92.50
10891;DHT22;5498;50.928;11.598;2022-12-10T11:43:22;1.00;93.30
10891;DHT22;5498;50.928;11.598;2022-12-10T11:46:53;0.60;94.00
10891;DHT22;5498;50.928;11.598;2022-12-10T11:50:08;0.50;94.70
10891;DHT22;5498;50.928;11.598;2022-12-10T11:57:08;0.30;95.60
10891;DHT22;5498;50.928;11.598;2022-12-10T12:00:19;0.60;95.40
10891;DHT22;5498;50.928;11.598;2022-12-10T12:03:37;0.70;95.00
10891;DHT22;5498;50.928;11.598;2022-12-10T12:07:02;1.00;95.00
10891;DHT22;5498;50.928;11.598;2022-12-10T12:10:26;0.80;94.70
10891;DHT22;5498;50.928;11.598;2022-12-10T12:13:43;0.70;94.80
10891;DHT22;5498;50.928;11.598;2022-12-10T12:16:58;0.60;94.80
10891;DHT22;5498;50.928;11.598;2022-12-10T12:20:14;0.60;95.40
10891;DHT22;5498;50.928;11.598;2022-12-10T12:23:22;0.80;95.30
10891;DHT22;5498;50.928;11.598;2022-12-10T12:26:29;0.90;95.00
10891;DHT22;5498;50.928;11.598;2022-12-10T12:29:37;1.00;95.00
10891;DHT22;5498;50.928;11.598;2022-12-10T12:32:51;1.00;94.60
10891;DHT22;5498;50.928;11.598;2022-12-10T12:36:02;1.00;94.60
10891;DHT22;5498;50.928;11.598;2022-12-10T12:39:14;1.10;94.50
10891;DHT22;5498;50.928;11.598;2022-12-10T12:42:25;1.20;94.50
10891;DHT22;5498;50.928;11.598;2022-12-10T12:45:36;1.30;94.40
10891;DHT22;5498;50.928;11.598;2022-12-10T12:48:46;1.40;94.20
10891;DHT22;5498;50.928;11.598;2022-12-10T12:52:00;1.40;94.10
10891;DHT22;5498;50.928;11.598;2022-12-10T12:55:09;1.50;94.00
10891;DHT22;5498;50.928;11.598;2022-12-10T12:58:25;1.40;93.90
10891;DHT22;5498;50.928;11.598;2022-12-10T13:01:36;1.40;94.10
10891;DHT22;5498;50.928;11.598;2022-12-10T13:04:41;1.30;94.00
10891;DHT22;5498;50.928;11.598;2022-12-10T13:08:21;1.40;94.00
10891;DHT22;5498;50.928;11.598;2022-12-10T13:11:32;1.40;94.10
10891;DHT22;5498;50.928;11.598;2022-12-10T13:14:36;1.30;94.00
10891;DHT22;5498;50.928;11.598;2022-12-10T13:18:22;1.30;94.10
10891;DHT22;5498;50.928;11.598;2022-12-10T13:21:57;1.10;94.20
10891;DHT22;5498;50.928;11.598;2022-12-10T13:25:13;1.00;94.60
10891;DHT22;5498;50.928;11.598;2022-12-10T13:28:22;0.90;95.00
10891;DHT22;5498;50.928;11.598;2022-12-10T13:31:37;0.80;95.00
10891;DHT22;5498;50.928;11.598;2022-12-10T13:34:40;0.90;94.90
10891;DHT22;5498;50.928;11.598;2022-12-10T13:37:55;0.60;94.60
10891;DHT22;5498;50.928;11.598;2022-12-10T13:41:06;0.50;95.30
10891;DHT22;5498;50.928;11.598;2022-12-10T13:44:37;0.50;95.60
10891;DHT22;5498;50.928;11.598;2022-12-10T13:47:49;0.50;95.70
10891;DHT22;5498;50.928;11.598;2022-12-10T13:51:13;0.50;95.90
10891;DHT22;5498;50.928;11.598;2022-12-10T13:58:25;0.60;96.10
10891;DHT22;5498;50.928;11.598;2022-12-10T14:01:37;0.80;95.80
10891;DHT22;5498;50.928;11.598;2022-12-10T14:04:57;0.70;95.40
10891;DHT22;5498;50.928;11.598;2022-12-10T14:08:19;0.90;95.50
10891;DHT22;5498;50.928;11.598;2022-12-10T14:11:28;0.80;95.00
10891;DHT22;5498;50.928;11.598;2022-12-10T14:14:34;0.90;95.20
10891;DHT22;5498;50.928;11.598;2022-12-10T14:17:41;1.00;94.60
10891;DHT22;5498;50.928;11.598;2022-12-10T14:20:46;0.90;94.40
10891;DHT22;5498;50.928;11.598;2022-12-10T14:23:49;0.80;94.10
10891;DHT22;5498;50.928;11.598;2022-12-10T14:26:57;0.80;94.70
10891;DHT22;5498;50.928;11.598;2022-12-10T14:30:05;0.90;94.70
10891;DHT22;5498;50.928;11.598;2022-12-10T14:33:14;1.00;94.40
10891;DHT22;5498;50.928;11.598;2022-12-10T14:36:24;1.00;94.50
10891;DHT22;5498;50.928;11.598;2022-12-10T14:39:31;1.10;94.20
10891;DHT22;5498;50.928;11.598;2022-12-10T14:42:34;1.10;94.10
10891;DHT22;5498;50.928;11.598;2022-12-10T14:45:45;0.90;94.00
10891;DHT22;5498;50.928;11.598;2022-12-10T14:48:49;1.00;94.00
10891;DHT22;5498;50.928;11.598;2022-12-10T14:51:55;1.10;93.80
10891;DHT22;5498;50.928;11.598;2022-12-10T14:54:58;1.20;93.80
10891;DHT22;5498;50.928;11.598;2022-12-10T14:58:03;1.20;93.70
10891;DHT22;5498;50.928;11.598;2022-12-10T15:01:13;1.20;93.60
10891;DHT22;5498;50.928;11.598;2022-12-10T15:04:19;1.20;93.50
10891;DHT22;5498;50.928;11.598;2022-12-10T15:07:23;1.30;93.40
10891;DHT22;5498;50.928;11.598;2022-12-10T15:10:31;1.30;93.40
10891;DHT22;5498;50.928;11.598;2022-12-10T15:13:38;1.20;93.10
10891;DHT22;5498;50.928;11.598;2022-12-10T15:16:45;1.00;93.20
10891;DHT22;5498;50.928;11.598;2022-12-10T15:19:50;0.80;93.50
10891;DHT22;5498;50.928;11.598;2022-12-10T15:22:52;1.10;93.70
10891;DHT22;5498;50.928;11.598;2022-12-10T15:25:59;0.80;93.60
10891;DHT22;5498;50.928;11.598;2022-12-10T15:29:29;0.80;93.50
10891;DHT22;5498;50.928;11.598;2022-12-10T15:32:35;0.70;93.50
10891;DHT22;5498;50.928;11.598;2022-12-10T15:35:37;0.80;93.40
10891;DHT22;5498;50.928;11.598;2022-12-10T15:38:39;0.80;93.30
10891;DHT22;5498;50.928;11.598;2022-12-10T15:41:44;0.80;93.20
10891;DHT22;5498;50.928;11.598;2022-12-10T15:44:47;0.70;93.30
10891;DHT22;5498;50.928;11.598;2022-12-10T15:47:50;0.60;93.30
10891;DHT22;5498;50.928;11.598;2022-12-10T15:50:52;0.70;93.10
10891;DHT22;5498;50.928;11.598;2022-12-10T15:53:55;0.50;93.20
10891;DHT22;5498;50.928;11.598;2022-12-10T15:56:58;0.60;93.10
10891;DHT22;5498;50.928;11.598;2022-12-10T16:00:01;0.70;93.30
10891;DHT22;5498;50.928;11.598;2022-12-10T16:03:10;0.70;93.30
10891;DHT22;5498;50.928;11.598;2022-12-10T16:06:13;0.90;93.30
10891;DHT22;5498;50.928;11.598;2022-12-10T16:09:15;0.90;93.00
10891;DHT22;5498;50.928;11.598;2022-12-10T16:12:17;0.70;92.70
10891;DHT22;5498;50.928;11.598;2022-12-10T16:15:22;0.80;93.10
10891;DHT22;5498;50.928;11.598;2022-12-10T16:18:26;0.90;93.20
10891;DHT22;5498;50.928;11.598;2022-12-10T16:21:28;1.00;93.10
10891;DHT22;5498;50.928;11.598;2022-12-10T16:24:30;1.10;92.90
10891;DHT22;5498;50.928;11.598;2022-12-10T16:27:32;1.20;92.80
10891;DHT22;5498;50.928;11.598;2022-12-10T16:30:40;1.10;92.70
10891;DHT22;5498;50.928;11.598;2022-12-10T16:33:46;1.20;92.80
10891;DHT22;5498;50.928;11.598;2022-12-10T16:36:49;1.30;92.80
10891;DHT22;5498;50.928;11.598;2022-12-10T16:39:51;1.30;92.70
10891;DHT22;5498;50.928;11.598;2022-12-10T16:42:53;1.20;92.60
10891;DHT22;5498;50.928;11.598;2022-12-10T16:45:55;1.30;92.90
10891;DHT22;5498;50.928;11.598;2022-12-10T16:48:59;1.20;92.90
10891;DHT22;5498;50.928;11.598;2022-12-10T16:52:01;1.20;92.70
10891;DHT22;5498;50.928;11.598;2022-12-10T16:55:04;1.00;92.60
10891;DHT22;5498;50.928;11.598;2022-12-10T16:58:09;1.00;92.80
10891;DHT22;5498;50.928;11.598;2022-12-10T17:01:20;0.80;93.00
10891;DHT22;5498;50.928;11.598;2022-12-10T17:04:25;0.90;93.20
10891;DHT22;5498;50.928;11.598;2022-12-10T17:07:27;0.80;93.00
10891;DHT22;5498;50.928;11.598;2022-12-10T17:10:29;0.90;93.10
10891;DHT22;5498;50.928;11.598;2022-12-10T17:13:49;0.90;93.30
10891;DHT22;5498;50.928;11.598;2022-12-10T17:16:52;0.80;93.40
10891;DHT22;5498;50.928;11.598;2022-12-10T17:19:57;0.80;93.50
10891;DHT22;5498;50.928;11.598;2022-12-10T17:23:00;0.60;93.30
10891;DHT22;5498;50.928;11.598;2022-12-10T17:26:03;0.70;93.30
10891;DHT22;5498;50.928;11.598;2022-12-10T17:29:11;0.50;93.30
10891;DHT22;5498;50.928;11.598;2022-12-10T17:32:15;0.60;93.60
10891;DHT22;5498;50.928;11.598;2022-12-10T17:35:19;0.70;93.50
10891;DHT22;5498;50.928;11.598;2022-12-10T17:38:22;0.90;93.40
10891;DHT22;5498;50.928;11.598;2022-12-10T17:41:25;1.00;93.30
10891;DHT22;5498;50.928;11.598;2022-12-10T17:44:27;1.00;93.10
10891;DHT22;5498;50.928;11.598;2022-12-10T17:47:30;1.00;93.20
10891;DHT22;5498;50.928;11.598;2022-12-10T17:50:36;0.90;93.20
10891;DHT22;5498;50.928;11.598;2022-12-10T17:53:39;0.80;93.30
10891;DHT22;5498;50.928;11.598;2022-12-10T17:56:43;0.80;93.20
10891;DHT22;5498;50.928;11.598;2022-12-10T17:59:46;0.80;93.00
10891;DHT22;5498;50.928;11.598;2022-12-10T18:02:49;0.90;93.10
10891;DHT22;5498;50.928;11.598;2022-12-10T18:05:53;0.80;93.10
10891;DHT22;5498;50.928;11.598;2022-12-10T18:08:58;0.70;93.20
10891;DHT22;5498;50.928;11.598;2022-12-10T18:12:01;0.70;93.50
10891;DHT22;5498;50.928;11.598;2022-12-10T18:15:04;0.80;93.50
10891;DHT22;5498;50.928;11.598;2022-12-10T18:18:07;0.90;93.80
10891;DHT22;5498;50.928;11.598;2022-12-10T18:21:12;0.90;93.70
10891;DHT22;5498;50.928;11.598;2022-12-10T18:24:15;0.90;93.60
10891;DHT22;5498;50.928;11.598;2022-12-10T18:27:18;1.00;93.50
10891;DHT22;5498;50.928;11.598;2022-12-10T18:30:23;1.00;93.50
10891;DHT22;5498;50.928;11.598;2022-12-10T18:33:25;0.90;93.60
10891;DHT22;5498;50.928;11.598;2022-12-10T18:36:31;1.00;93.50
10891;DHT22;5498;50.928;11.598;2022-12-10T18:39:34;0.90;93.60
10891;DHT22;5498;50.928;11.598;2022-12-10T18:42:38;0.80;93.50
10891;DHT22;5498;50.928;11.598;2022-12-10T18:45:40;0.80;93.80
10891;DHT22;5498;50.928;11.598;2022-12-10T18:48:42;0.40;94.00
10891;DHT22;5498;50.928;11.598;2022-12-10T18:51:45;0.10;94.60
10891;DHT22;5498;50.928;11.598;2022-12-10T18:54:47;0.20;95.20
10891;DHT22;5498;50.928;11.598;2022-12-10T18:57:50;0.00;95.30
10891;DHT22;5498;50.928;11.598;2022-12-10T19:00:52;0.00;95.70
10891;DHT22;5498;50.928;11.598;2022-12-10T19:03:55;0.00;95.70
10891;DHT22;5498;50.928;11.598;2022-12-10T19:06:59;0.10;95.90
10891;DHT22;5498;50.928;11.598;2022-12-10T19:10:02;0.10;95.90
10891;DHT22;5498;50.928;11.598;2022-12-10T19:13:05;0.20;95.90
10891;DHT22;5498;50.928;11.598;2022-12-10T19:16:10;0.20;95.70
10891;DHT22;5498;50.928;11.598;2022-12-10T19:19:15;0.40;95.80
10891;DHT22;5498;50.928;11.598;2022-12-10T19:22:19;0.50;95.70
10891;DHT22;5498;50.928;11.598;2022-12-10T19:25:21;0.60;95.50
10891;DHT22;5498;50.928;11.598;2022-12-10T19:28:23;0.60;95.30
10891;DHT22;5498;50.928;11.598;2022-12-10T19:31:25;0.40;95.10
10891;DHT22;5498;50.928;11.598;2022-12-10T19:34:28;0.40;95.50
10891;DHT22;5498;50.928;11.598;2022-12-10T19:37:31;0.50;95.30
10891;DHT22;5498;50.928;11.598;2022-12-10T19:40:34;0.50;95.30
10891;DHT22;5498;50.928;11.598;2022-12-10T19:43:36;0.50;95.20
10891;DHT22;5498;50.928;11.598;2022-12-10T19:46:38;0.60;95.20
10891;DHT22;5498;50.928;11.598;2022-12-10T19:49:41;0.50;95.10
10891;DHT22;5498;50.928;11.598;2022-12-10T19:52:44;0.50;95.20
10891;DHT22;5498;50.928;11.598;2022-12-10T19:55:46;0.60;95.40
10891;DHT22;5498;50.928;11.598;2022-12-10T19:58:50;0.50;95.20
10891;DHT22;5498;50.928;11.598;2022-12-10T20:01:53;0.60;95.40
10891;DHT22;5498;50.928;11.598;2022-12-10T20:04:55;0.60;95.30